createdAt,value
2017-09-08T00:01:10.833Z,90.40
2017-09-08T00:03:38.374Z,90.30
2017-09-08T00:06:05.897Z,90.40
2017-09-08T00:08:33.342Z,90.40
2017-09-08T00:11:00.760Z,90.40
2017-09-08T00:13:28.948Z,90.80
2017-09-08T00:15:56.404Z,90.30
2017-09-08T00:18:24.629Z,90.30
2017-09-08T00:20:52.101Z,90.30
2017-09-08T00:23:19.540Z,90.30
2017-09-08T00:25:46.995Z,90.30
2017-09-08T00:28:14.445Z,90.40
2017-09-08T00:30:41.939Z,90.40
2017-09-08T00:33:09.370Z,90.50
2017-09-08T00:35:36.801Z,90.40
2017-09-08T00:38:04.238Z,90.40
2017-09-08T00:40:32.433Z,90.40
2017-09-08T00:42:59.864Z,90.40
2017-09-08T00:45:27.305Z,90.40
2017-09-08T00:47:55.496Z,90.40
2017-09-08T00:50:22.931Z,90.40
2017-09-08T00:52:50.342Z,90.50
2017-09-08T00:55:17.820Z,90.50
2017-09-08T00:57:45.256Z,90.50
2017-09-08T01:00:12.712Z,90.60
2017-09-08T01:02:40.190Z,90.50
2017-09-08T01:05:07.720Z,90.80
2017-09-08T01:07:35.181Z,90.70
2017-09-08T01:10:02.609Z,90.50
2017-09-08T01:12:30.197Z,90.60
2017-09-08T01:14:57.654Z,90.60
2017-09-08T01:17:25.097Z,90.50
2017-09-08T01:19:52.564Z,90.60
2017-09-08T01:22:19.988Z,90.50
2017-09-08T01:24:47.433Z,90.30
2017-09-08T01:27:15.657Z,90.20
2017-09-08T01:29:43.099Z,90.20
2017-09-08T01:32:10.526Z,90.20
2017-09-08T01:34:38.124Z,90.20
2017-09-08T01:37:05.585Z,90.20
2017-09-08T01:39:33.045Z,90.10
2017-09-08T01:42:00.464Z,90.20
2017-09-08T01:44:27.907Z,90.10
2017-09-08T01:46:56.133Z,90.20
2017-09-08T01:49:23.576Z,90.20
2017-09-08T01:51:51.033Z,90.20
2017-09-08T01:54:18.520Z,90.20
2017-09-08T01:56:46.066Z,90.30
2017-09-08T01:59:13.505Z,90.30
2017-09-08T02:01:40.979Z,90.30
2017-09-08T02:04:08.428Z,90.30
2017-09-08T02:06:35.860Z,90.30
2017-09-08T02:09:03.336Z,90.20
2017-09-08T02:11:30.764Z,90.10
2017-09-08T02:13:58.264Z,90.00
2017-09-08T02:16:25.710Z,90.10
2017-09-08T02:18:53.141Z,90.00
2017-09-08T02:21:20.561Z,90.00
2017-09-08T02:23:48.769Z,90.10
2017-09-08T02:26:16.256Z,90.10
2017-09-08T02:28:43.698Z,90.00
2017-09-08T02:31:11.137Z,90.10
2017-09-08T02:33:38.563Z,90.20
2017-09-08T02:36:06.772Z,90.60
2017-09-08T02:38:34.253Z,90.60
2017-09-08T02:41:01.708Z,90.90
2017-09-08T02:43:29.171Z,90.80
2017-09-08T02:45:56.595Z,91.40
2017-09-08T02:48:24.073Z,91.60
2017-09-08T02:50:51.509Z,91.60
2017-09-08T02:53:18.937Z,92.00
2017-09-08T02:55:46.369Z,91.90
2017-09-08T02:58:14.570Z,92.40
2017-09-08T03:00:42.001Z,92.40
2017-09-08T03:03:09.433Z,92.70
2017-09-08T03:05:37.708Z,93.20
2017-09-08T03:08:05.157Z,93.40
2017-09-08T03:10:32.568Z,93.10
2017-09-08T03:13:00.024Z,93.50
2017-09-08T03:15:27.432Z,93.70
2017-09-08T03:17:54.884Z,93.80
2017-09-08T03:20:22.374Z,94.30
2017-09-08T03:22:49.830Z,94.50
2017-09-08T03:25:17.269Z,94.80
2017-09-08T03:27:44.815Z,94.80
2017-09-08T03:30:12.273Z,95.10
2017-09-08T03:32:39.730Z,95.40
2017-09-08T03:35:07.183Z,95.40
2017-09-08T03:37:34.627Z,95.50
2017-09-08T03:40:02.834Z,96.10
2017-09-08T03:42:30.301Z,96.00
2017-09-08T03:44:58.537Z,96.70
2017-09-08T03:47:25.965Z,96.70
2017-09-08T03:49:53.423Z,97.20
2017-09-08T03:52:20.883Z,97.20
2017-09-08T03:54:48.321Z,97.40
2017-09-08T03:57:15.762Z,97.30
2017-09-08T03:59:43.233Z,97.40
2017-09-08T04:02:10.772Z,97.60
2017-09-08T04:04:38.228Z,97.60
2017-09-08T04:07:05.682Z,97.90
2017-09-08T04:09:33.145Z,97.90
2017-09-08T04:12:00.600Z,97.90
2017-09-08T04:14:28.036Z,98.10
2017-09-08T04:16:55.493Z,98.50
2017-09-08T04:19:22.949Z,98.40
2017-09-08T04:21:50.408Z,98.90
2017-09-08T04:24:17.877Z,99.60
2017-09-08T04:26:45.311Z,99.90
2017-09-08T04:29:13.518Z,99.90
2017-09-08T04:31:40.952Z,99.90
2017-09-08T04:34:08.411Z,99.90
2017-09-08T04:36:35.836Z,99.90
2017-09-08T04:39:03.273Z,99.90
2017-09-08T04:41:31.528Z,99.30
2017-09-08T04:43:58.976Z,99.30
2017-09-08T04:46:26.418Z,99.20
2017-09-08T04:48:53.860Z,99.70
2017-09-08T04:51:21.271Z,99.90
2017-09-08T04:53:49.500Z,99.20
2017-09-08T04:56:16.928Z,99.10
2017-09-08T04:58:44.352Z,99.00
2017-09-08T05:01:12.584Z,99.00
2017-09-08T05:03:40.100Z,98.90
2017-09-08T05:06:08.282Z,98.90
2017-09-08T05:08:35.723Z,98.90
2017-09-08T05:11:03.961Z,98.50
2017-09-08T05:13:31.511Z,98.40
2017-09-08T05:15:58.960Z,98.20
2017-09-08T05:18:26.429Z,98.10
2017-09-08T05:20:53.885Z,98.00
2017-09-08T05:23:21.352Z,98.00
2017-09-08T05:25:48.792Z,97.90
2017-09-08T05:28:16.261Z,97.60
2017-09-08T05:30:43.830Z,97.50
2017-09-08T05:33:11.367Z,97.30
2017-09-08T05:35:38.834Z,97.10
2017-09-08T05:38:06.284Z,97.40
2017-09-08T05:40:33.708Z,97.20
2017-09-08T05:43:01.137Z,97.30
2017-09-08T05:45:29.372Z,97.10
2017-09-08T05:47:56.828Z,97.10
2017-09-08T05:50:24.236Z,97.10
2017-09-08T05:52:51.656Z,96.90
2017-09-08T05:55:19.101Z,96.80
2017-09-08T05:57:48.095Z,96.70
2017-09-08T06:00:15.643Z,96.70
2017-09-08T06:02:43.066Z,96.40
2017-09-08T06:05:10.514Z,96.70
2017-09-08T06:07:38.692Z,96.80
2017-09-08T06:10:06.120Z,96.80
2017-09-08T06:12:34.316Z,96.60
2017-09-08T06:15:01.802Z,96.60
2017-09-08T06:17:29.224Z,96.60
2017-09-08T06:19:56.669Z,96.40
2017-09-08T06:22:24.841Z,96.10
2017-09-08T06:24:52.297Z,96.20
2017-09-08T06:27:19.810Z,95.80
2017-09-08T06:29:47.238Z,95.50
2017-09-08T06:32:14.724Z,95.40
2017-09-08T06:34:43.225Z,95.60
2017-09-08T06:37:11.408Z,95.90
2017-09-08T06:39:39.652Z,95.10
2017-09-08T06:42:07.193Z,95.10
2017-09-08T06:44:34.636Z,95.10
2017-09-08T06:47:02.100Z,95.10
2017-09-08T06:49:29.512Z,95.00
2017-09-08T06:51:57.777Z,94.80
2017-09-08T06:54:25.282Z,94.80
2017-09-08T06:56:52.742Z,94.60
2017-09-08T06:59:20.199Z,94.90
2017-09-08T07:01:47.629Z,94.80
2017-09-08T07:04:15.078Z,94.70
2017-09-08T07:06:43.317Z,94.80
2017-09-08T07:09:11.561Z,94.70
2017-09-08T07:11:38.993Z,94.60
2017-09-08T07:14:07.188Z,94.70
2017-09-08T07:16:35.379Z,94.50
2017-09-08T07:19:02.804Z,94.50
2017-09-08T07:21:30.287Z,94.80
2017-09-08T07:23:57.748Z,95.00
2017-09-08T07:26:25.173Z,94.40
2017-09-08T07:28:53.369Z,94.60
2017-09-08T07:31:20.840Z,94.60
2017-09-08T07:33:48.245Z,94.60
2017-09-08T07:36:15.691Z,94.30
2017-09-08T07:38:43.169Z,94.60
2017-09-08T07:41:10.618Z,94.10
2017-09-08T07:43:38.049Z,93.90
2017-09-08T07:46:05.528Z,93.70
2017-09-08T07:48:32.985Z,93.60
2017-09-08T07:51:00.439Z,93.70
2017-09-08T07:53:27.886Z,93.50
2017-09-08T07:55:55.397Z,93.50
2017-09-08T07:58:23.752Z,93.20
2017-09-08T08:00:51.191Z,93.10
2017-09-08T08:03:18.642Z,93.00
2017-09-08T08:05:46.112Z,93.10
2017-09-08T08:08:13.557Z,93.10
2017-09-08T08:10:41.008Z,92.70
2017-09-08T08:13:08.440Z,92.70
2017-09-08T08:15:35.874Z,92.50
2017-09-08T08:18:04.098Z,92.30
2017-09-08T08:20:31.523Z,92.30
2017-09-08T08:22:59.017Z,91.90
2017-09-08T08:25:26.445Z,91.80
2017-09-08T08:27:53.944Z,92.00
2017-09-08T08:30:21.370Z,91.60
2017-09-08T08:32:48.795Z,91.80
2017-09-08T08:35:16.310Z,91.40
2017-09-08T08:37:43.748Z,91.60
2017-09-08T08:40:11.178Z,91.40
2017-09-08T08:42:38.659Z,91.40
2017-09-08T08:45:06.090Z,91.10
2017-09-08T08:47:33.599Z,90.70
2017-09-08T08:50:01.012Z,90.70
2017-09-08T08:52:28.457Z,90.90
2017-09-08T08:54:55.915Z,90.70
2017-09-08T08:57:23.323Z,90.50
2017-09-08T08:59:50.857Z,90.20
2017-09-08T09:02:18.304Z,89.70
2017-09-08T09:04:45.743Z,89.90
2017-09-08T09:07:13.215Z,88.60
2017-09-08T09:09:40.639Z,88.50
2017-09-08T09:12:08.842Z,87.90
2017-09-08T09:14:36.334Z,87.80
2017-09-08T09:17:03.764Z,87.70
2017-09-08T09:19:31.203Z,87.90
2017-09-08T09:21:58.637Z,88.00
2017-09-08T09:24:26.832Z,88.00
2017-09-08T09:26:54.273Z,88.00
2017-09-08T09:29:21.722Z,87.70
2017-09-08T09:31:49.148Z,87.60
2017-09-08T09:34:17.361Z,87.40
2017-09-08T09:36:44.809Z,87.40
2017-09-08T09:39:12.308Z,87.60
2017-09-08T09:41:39.730Z,86.60
2017-09-08T09:44:07.163Z,87.00
2017-09-08T09:46:34.610Z,87.30
2017-09-08T09:49:02.041Z,87.00
2017-09-08T09:51:29.474Z,86.40
2017-09-08T09:53:57.663Z,86.60
2017-09-08T09:56:25.154Z,86.50
2017-09-08T09:58:52.585Z,87.40
2017-09-08T10:01:20.016Z,87.30
2017-09-08T10:03:48.209Z,88.80
2017-09-08T10:06:15.648Z,88.80
2017-09-08T10:08:43.876Z,88.60
2017-09-08T10:11:11.288Z,87.70
2017-09-08T10:13:38.719Z,87.70
2017-09-08T10:16:06.221Z,88.10
2017-09-08T10:18:33.660Z,87.40
2017-09-08T10:21:01.088Z,87.20
2017-09-08T10:23:28.588Z,86.50
2017-09-08T10:25:56.031Z,85.50
2017-09-08T10:28:23.472Z,85.70
2017-09-08T10:30:51.659Z,84.90
2017-09-08T10:33:19.086Z,84.80
2017-09-08T10:35:47.292Z,83.30
2017-09-08T10:38:14.742Z,83.30
2017-09-08T10:40:42.164Z,83.10
2017-09-08T10:43:10.377Z,83.40
2017-09-08T10:45:37.816Z,82.60
2017-09-08T10:48:05.258Z,82.30
2017-09-08T10:50:33.452Z,81.50
2017-09-08T10:53:00.915Z,81.50
2017-09-08T10:55:28.366Z,82.10
2017-09-08T10:57:55.940Z,81.20
2017-09-08T11:00:23.409Z,82.60
2017-09-08T11:02:50.868Z,83.20
2017-09-08T11:05:18.310Z,83.60
2017-09-08T11:07:45.752Z,83.50
2017-09-08T11:10:13.257Z,83.90
2017-09-08T11:12:40.692Z,83.00
2017-09-08T11:15:08.136Z,83.50
2017-09-08T11:17:35.578Z,83.50
2017-09-08T11:20:03.030Z,83.60
2017-09-08T11:22:30.605Z,83.80
2017-09-08T11:24:58.047Z,83.90
2017-09-08T11:27:25.504Z,83.90
2017-09-08T11:29:52.946Z,83.80
2017-09-08T11:35:35.370Z,84.40
2017-09-08T11:38:03.576Z,85.20
2017-09-08T11:40:31.004Z,85.10
2017-09-08T11:42:58.508Z,86.50
2017-09-08T11:45:25.939Z,87.30
2017-09-08T11:47:53.393Z,88.20
2017-09-08T11:50:20.821Z,89.90
2017-09-08T11:52:49.025Z,91.60
2017-09-08T11:55:16.485Z,91.60
2017-09-08T11:57:43.922Z,92.30
2017-09-08T12:00:11.397Z,92.70
2017-09-08T12:02:38.877Z,93.40
2017-09-08T12:05:06.331Z,93.90
2017-09-08T12:07:33.768Z,94.10
2017-09-08T12:10:01.201Z,94.10
2017-09-08T12:12:28.680Z,94.40
2017-09-08T12:14:56.133Z,94.50
2017-09-08T12:17:23.570Z,94.50
2017-09-08T12:19:51.865Z,94.90
2017-09-08T12:22:19.328Z,94.90
2017-09-08T12:24:46.796Z,95.00
2017-09-08T12:27:14.239Z,95.10
2017-09-08T12:29:41.801Z,95.20
2017-09-08T12:32:09.336Z,95.30
2017-09-08T12:34:36.768Z,95.70
2017-09-08T12:37:04.987Z,95.40
2017-09-08T12:39:32.425Z,95.40
2017-09-08T12:41:59.860Z,95.60
2017-09-08T12:44:28.184Z,96.10
2017-09-08T12:46:55.642Z,96.10
2017-09-08T12:49:23.092Z,96.20
2017-09-08T12:51:50.529Z,96.30
2017-09-08T12:54:18.002Z,96.80
2017-09-08T12:56:45.438Z,96.70
2017-09-08T12:59:12.861Z,96.70
2017-09-08T13:01:41.044Z,97.20
2017-09-08T13:04:09.259Z,97.10
2017-09-08T13:06:36.734Z,97.10
2017-09-08T13:09:04.182Z,97.00
2017-09-08T13:11:32.601Z,97.10
2017-09-08T13:14:00.789Z,97.40
2017-09-08T13:16:28.225Z,97.00
2017-09-08T13:18:55.677Z,97.20
2017-09-08T13:21:23.129Z,97.30
2017-09-08T13:23:50.568Z,97.30
2017-09-08T13:26:18.012Z,97.30
2017-09-08T13:28:45.529Z,97.20
2017-09-08T13:31:13.049Z,96.80
2017-09-08T13:33:40.496Z,97.00
2017-09-08T13:36:07.952Z,97.00
2017-09-08T13:38:35.519Z,96.70
2017-09-08T13:41:03.056Z,96.70
2017-09-08T13:43:30.521Z,97.20
2017-09-08T13:45:57.947Z,97.30
2017-09-08T13:48:25.379Z,97.00
2017-09-08T13:50:53.577Z,97.20
2017-09-08T13:53:21.011Z,97.20
2017-09-08T13:55:49.177Z,97.40
2017-09-08T13:58:17.408Z,97.70
2017-09-08T14:00:44.832Z,97.70
2017-09-08T14:03:12.319Z,98.00
2017-09-08T14:05:39.773Z,98.10
2017-09-08T14:08:07.213Z,98.60
2017-09-08T14:10:34.691Z,98.50
2017-09-08T14:13:02.125Z,98.60
2017-09-08T14:15:29.552Z,98.60
2017-09-08T14:17:57.780Z,98.80
2017-09-08T14:20:25.248Z,98.80
2017-09-08T14:22:52.695Z,98.90
2017-09-08T14:25:20.125Z,98.90
2017-09-08T14:27:47.613Z,98.90
2017-09-08T14:30:15.044Z,99.00
2017-09-08T14:32:42.474Z,99.20
2017-09-08T14:35:09.905Z,99.80
2017-09-08T14:37:38.157Z,99.90
2017-09-08T14:40:05.588Z,99.60
2017-09-08T14:42:33.024Z,99.90
2017-09-08T14:45:00.540Z,99.90
2017-09-08T14:47:28.822Z,99.90
2017-09-08T14:49:57.017Z,99.90
2017-09-08T14:52:24.469Z,99.90
2017-09-08T14:54:51.914Z,99.90
2017-09-08T14:57:19.400Z,99.90
2017-09-08T14:59:46.874Z,99.90
2017-09-08T15:02:14.309Z,99.90
2017-09-08T15:04:41.774Z,99.90
2017-09-08T15:07:10.167Z,99.90
2017-09-08T15:09:38.377Z,99.90
2017-09-08T15:12:05.856Z,99.90
2017-09-08T15:14:33.332Z,99.90
2017-09-08T15:17:00.760Z,99.90
2017-09-08T15:19:28.224Z,99.90
2017-09-08T15:21:55.705Z,99.90
2017-09-08T15:24:23.147Z,99.90
2017-09-08T15:26:50.584Z,99.90
2017-09-08T15:29:18.048Z,99.90
2017-09-08T15:31:45.480Z,99.90
2017-09-08T15:34:12.964Z,99.90
2017-09-08T15:36:40.421Z,99.90
2017-09-08T15:39:07.875Z,99.90
2017-09-08T15:41:35.312Z,99.90
2017-09-08T15:44:02.766Z,99.90
2017-09-08T15:46:30.249Z,99.90
2017-09-08T15:48:58.536Z,99.90
2017-09-08T15:51:25.976Z,99.90
2017-09-08T15:53:53.388Z,99.90
2017-09-08T15:56:21.599Z,99.90
2017-09-08T15:58:49.042Z,99.90
2017-09-08T16:01:16.464Z,99.90
2017-09-08T16:03:43.904Z,99.90
2017-09-08T16:06:11.541Z,99.90
2017-09-08T16:08:38.989Z,99.90
2017-09-08T16:11:06.459Z,99.90
2017-09-08T16:13:33.919Z,99.90
2017-09-08T16:16:01.373Z,99.90
2017-09-08T16:18:28.829Z,99.90
2017-09-08T16:20:56.278Z,99.90
2017-09-08T16:23:23.723Z,99.90
2017-09-08T16:25:51.260Z,99.90
2017-09-08T16:28:18.740Z,99.90
2017-09-08T16:30:46.262Z,99.90
2017-09-08T16:33:13.665Z,99.90
2017-09-08T16:35:41.093Z,99.90
2017-09-08T16:38:08.524Z,99.90
2017-09-08T16:40:35.948Z,99.90
2017-09-08T16:43:03.465Z,99.90
2017-09-08T16:45:30.885Z,99.90
2017-09-08T16:47:58.324Z,99.90
2017-09-08T16:50:26.518Z,99.90
2017-09-08T16:52:56.702Z,99.90
2017-09-08T16:55:24.134Z,99.90
2017-09-08T16:57:51.572Z,99.90
2017-09-08T17:00:19.015Z,99.90
2017-09-08T17:02:46.448Z,99.90
2017-09-08T17:05:16.888Z,99.90
2017-09-08T17:07:44.312Z,99.90
2017-09-08T17:10:12.504Z,99.90
2017-09-08T17:12:41.806Z,99.90
2017-09-08T17:15:11.489Z,99.90
2017-09-08T17:17:40.437Z,99.90
2017-09-08T17:20:09.623Z,99.90
2017-09-08T17:22:37.044Z,99.90
2017-09-08T17:25:04.494Z,99.90
2017-09-08T17:27:31.924Z,99.90
2017-09-08T17:29:59.404Z,99.90
2017-09-08T17:32:26.873Z,99.90
2017-09-08T17:34:54.577Z,99.90
2017-09-08T17:37:22.084Z,99.90
2017-09-08T17:39:49.551Z,99.90
2017-09-08T17:42:17.000Z,99.90
2017-09-08T17:44:44.430Z,99.90
2017-09-08T17:47:11.880Z,99.90
2017-09-08T17:49:39.369Z,99.90
2017-09-08T17:52:06.797Z,99.90
2017-09-08T17:54:34.300Z,99.90
2017-09-08T17:57:01.761Z,99.90
2017-09-08T17:59:29.195Z,99.90
2017-09-08T18:01:56.672Z,99.90
2017-09-08T18:04:24.110Z,99.90
2017-09-08T18:06:51.567Z,99.90
2017-09-08T18:09:19.003Z,99.90
2017-09-08T18:11:46.429Z,99.90
2017-09-08T18:14:14.656Z,99.90
2017-09-08T18:16:42.092Z,99.90
2017-09-08T18:19:09.534Z,99.90
2017-09-08T18:21:37.022Z,99.90
2017-09-08T18:24:04.446Z,99.90
2017-09-08T18:26:31.868Z,99.90
2017-09-08T18:28:59.310Z,99.90
2017-09-08T18:31:26.740Z,99.90
2017-09-08T18:33:54.172Z,99.90
2017-09-08T18:36:21.601Z,99.90
2017-09-08T18:38:49.810Z,99.90
2017-09-08T18:41:17.233Z,99.90
2017-09-08T18:43:44.834Z,99.90
2017-09-08T18:46:12.261Z,99.90
2017-09-08T18:48:39.863Z,99.90
2017-09-08T18:51:07.330Z,99.90
2017-09-08T18:53:34.769Z,99.90
2017-09-08T18:56:02.220Z,99.90
2017-09-08T18:58:29.715Z,99.90
2017-09-08T19:00:57.131Z,99.90
2017-09-08T19:03:24.577Z,99.90
2017-09-08T19:05:52.009Z,99.90
2017-09-08T19:08:20.187Z,99.90
2017-09-08T19:10:47.608Z,99.90
2017-09-08T19:13:15.066Z,99.90
2017-09-08T19:15:42.488Z,99.90
2017-09-08T19:18:09.925Z,99.90
2017-09-08T19:20:37.396Z,99.90
2017-09-08T19:23:04.816Z,99.90
2017-09-08T19:25:32.246Z,99.90
2017-09-08T19:27:59.677Z,99.90
2017-09-08T19:30:27.125Z,99.90
2017-09-08T19:32:54.575Z,99.90
2017-09-08T19:35:21.975Z,99.90
2017-09-08T19:37:50.202Z,99.90
2017-09-08T19:40:17.666Z,99.90
2017-09-08T19:42:45.330Z,99.90
2017-09-08T19:45:12.753Z,99.90
2017-09-08T19:47:40.233Z,99.90
2017-09-08T19:50:07.711Z,99.90
2017-09-08T19:52:35.144Z,99.90
2017-09-08T19:55:02.577Z,99.90
2017-09-08T19:57:30.881Z,99.90
2017-09-08T19:59:58.344Z,99.90
2017-09-08T20:02:25.744Z,99.90
2017-09-08T20:04:54.067Z,99.90
2017-09-08T20:07:21.471Z,99.90
2017-09-08T20:09:49.655Z,99.90
2017-09-08T20:12:17.160Z,99.90
2017-09-08T20:14:44.581Z,99.90
2017-09-08T20:17:11.995Z,99.90
2017-09-08T20:19:39.448Z,99.90
2017-09-08T20:22:06.855Z,99.90
2017-09-08T20:24:34.329Z,99.90
2017-09-08T20:27:01.816Z,99.90
2017-09-08T20:29:29.279Z,99.90
2017-09-08T20:31:56.712Z,99.90
2017-09-08T20:34:24.161Z,99.90
2017-09-08T20:36:52.392Z,99.90
2017-09-08T20:39:19.806Z,99.90
2017-09-08T20:41:47.257Z,99.90
2017-09-08T20:44:16.672Z,99.90
2017-09-08T20:46:44.109Z,99.90
2017-09-08T20:49:12.420Z,99.90
2017-09-08T20:51:39.938Z,99.90
2017-09-08T20:54:07.375Z,99.90
2017-09-08T20:56:34.890Z,99.90
2017-09-08T20:59:02.321Z,99.90
2017-09-08T21:01:29.881Z,99.90
2017-09-08T21:03:57.343Z,99.90
2017-09-08T21:06:25.534Z,99.90
2017-09-08T21:08:53.725Z,99.90
2017-09-08T21:11:21.922Z,99.90
2017-09-08T21:13:49.371Z,99.90
2017-09-08T21:16:16.801Z,99.90
2017-09-08T21:18:44.240Z,99.90
2017-09-08T21:21:12.425Z,99.90
2017-09-08T21:23:40.621Z,99.90
2017-09-08T21:26:12.956Z,99.90
2017-09-08T21:28:40.397Z,99.90
2017-09-08T21:31:07.827Z,99.90
2017-09-08T21:33:35.265Z,99.90
2017-09-08T21:36:03.503Z,99.90
2017-09-08T21:38:31.776Z,99.90
2017-09-08T21:40:59.217Z,99.90
2017-09-08T21:43:26.651Z,99.90
2017-09-08T21:45:54.073Z,99.90
2017-09-08T21:48:21.514Z,99.90
2017-09-08T21:50:48.988Z,99.90
2017-09-08T21:53:17.193Z,99.90
2017-09-08T21:55:44.636Z,99.90
2017-09-08T21:58:12.050Z,99.90
2017-09-08T22:00:39.491Z,99.90
2017-09-08T22:03:06.995Z,99.90
2017-09-08T22:05:35.200Z,99.90
2017-09-08T22:08:02.621Z,99.90
2017-09-08T22:10:30.159Z,99.90
2017-09-08T22:12:57.610Z,99.90
2017-09-08T22:15:25.054Z,99.90
2017-09-08T22:17:52.501Z,99.90
2017-09-08T22:20:23.602Z,99.90
2017-09-08T22:22:52.052Z,99.90
2017-09-08T22:25:19.534Z,99.90
2017-09-08T22:27:46.974Z,99.90
2017-09-08T22:30:14.425Z,99.90
2017-09-08T22:32:41.877Z,99.90
2017-09-08T22:35:09.336Z,99.90
2017-09-08T22:37:36.773Z,99.90
2017-09-08T22:40:04.982Z,99.90
2017-09-08T22:42:32.409Z,99.90
2017-09-08T22:45:00.468Z,99.90
2017-09-08T22:47:27.938Z,99.90
2017-09-08T22:49:56.124Z,99.90
2017-09-08T22:52:23.571Z,99.90
2017-09-08T22:54:51.773Z,99.90
2017-09-08T22:57:19.198Z,99.90
2017-09-08T22:59:46.695Z,99.90
2017-09-08T23:02:14.121Z,99.90
2017-09-08T23:04:41.583Z,99.90
2017-09-08T23:07:09.028Z,99.90
2017-09-08T23:09:38.345Z,99.90
2017-09-08T23:12:05.822Z,99.90
2017-09-08T23:14:33.256Z,99.90
2017-09-08T23:17:00.730Z,99.90
2017-09-08T23:19:28.162Z,99.90
2017-09-08T23:21:55.715Z,99.90
2017-09-08T23:24:23.925Z,99.90
2017-09-08T23:26:51.386Z,99.90
2017-09-08T23:29:18.859Z,99.90
2017-09-08T23:31:46.314Z,99.90
2017-09-08T23:34:13.761Z,99.90
2017-09-08T23:36:41.181Z,99.90
2017-09-08T23:39:08.639Z,99.90
2017-09-08T23:41:36.810Z,99.90
2017-09-08T23:44:04.265Z,99.90
2017-09-08T23:46:32.897Z,99.90
2017-09-08T23:49:00.329Z,99.90
2017-09-08T23:51:27.789Z,99.90
2017-09-08T23:53:55.221Z,99.90
2017-09-08T23:56:23.445Z,99.90
2017-09-08T23:58:50.957Z,99.90
